sensor_id;sensor_type;location;lat;lon;timestamp;P1;durP1;ratioP1;P2;durP2;ratioP2
54959;SDS011;40860;51.710;8.736;2022-11-20T00:01:13;18.48;;;11.68;;
54959;SDS011;40860;51.710;8.736;2022-11-20T00:05:17;14.23;;;9.85;;
54959;SDS011;40860;51.710;8.736;2022-11-20T00:09:23;14.95;;;10.45;;
54959;SDS011;40860;51.710;8.736;2022-11-20T00:13:26;16.98;;;10.75;;
54959;SDS011;40860;51.710;8.736;2022-11-20T00:17:28;15.18;;;10.05;;
54959;SDS011;40860;51.710;8.736;2022-11-20T00:21:31;16.17;;;10.50;;
54959;SDS011;40860;51.710;8.736;2022-11-20T00:25:36;15.82;;;10.18;;
54959;SDS011;40860;51.710;8.736;2022-11-20T00:29:38;16.85;;;10.52;;
54959;SDS011;40860;51.710;8.736;2022-11-20T00:33:42;18.40;;;10.55;;
54959;SDS011;40860;51.710;8.736;2022-11-20T00:37:45;17.25;;;9.93;;
54959;SDS011;40860;51.710;8.736;2022-11-20T00:41:50;14.95;;;10.15;;
54959;SDS011;40860;51.710;8.736;2022-11-20T00:45:55;15.23;;;10.15;;
54959;SDS011;40860;51.710;8.736;2022-11-20T00:49:59;14.48;;;9.27;;
54959;SDS011;40860;51.710;8.736;2022-11-20T00:54:02;12.73;;;9.00;;
54959;SDS011;40860;51.710;8.736;2022-11-20T00:58:06;13.20;;;8.82;;
54959;SDS011;40860;51.710;8.736;2022-11-20T01:02:14;13.35;;;8.50;;
54959;SDS011;40860;51.710;8.736;2022-11-20T01:06:18;11.82;;;7.88;;
54959;SDS011;40860;51.710;8.736;2022-11-20T01:10:22;12.77;;;7.93;;
54959;SDS011;40860;51.710;8.736;2022-11-20T01:14:26;13.40;;;8.82;;
54959;SDS011;40860;51.710;8.736;2022-11-20T01:18:29;13.13;;;8.82;;
54959;SDS011;40860;51.710;8.736;2022-11-20T01:22:32;12.55;;;8.27;;
54959;SDS011;40860;51.710;8.736;2022-11-20T01:26:36;14.13;;;9.15;;
54959;SDS011;40860;51.710;8.736;2022-11-20T01:30:41;12.95;;;8.10;;
54959;SDS011;40860;51.710;8.736;2022-11-20T01:34:44;14.50;;;9.13;;
54959;SDS011;40860;51.710;8.736;2022-11-20T01:38:47;12.05;;;8.45;;
54959;SDS011;40860;51.710;8.736;2022-11-20T01:42:55;15.85;;;8.43;;
54959;SDS011;40860;51.710;8.736;2022-11-20T01:47:31;12.82;;;8.32;;
54959;SDS011;40860;51.710;8.736;2022-11-20T01:51:38;13.25;;;8.23;;
54959;SDS011;40860;51.710;8.736;2022-11-20T01:55:45;15.68;;;9.55;;
54959;SDS011;40860;51.710;8.736;2022-11-20T01:59:51;12.80;;;8.07;;
54959;SDS011;40860;51.710;8.736;2022-11-20T02:03:59;14.40;;;8.30;;
54959;SDS011;40860;51.710;8.736;2022-11-20T02:08:03;14.55;;;9.35;;
54959;SDS011;40860;51.710;8.736;2022-11-20T02:12:07;14.35;;;8.57;;
54959;SDS011;40860;51.710;8.736;2022-11-20T02:16:31;14.00;;;7.90;;
54959;SDS011;40860;51.710;8.736;2022-11-20T02:20:39;11.20;;;7.28;;
54959;SDS011;40860;51.710;8.736;2022-11-20T02:24:45;11.65;;;7.85;;
54959;SDS011;40860;51.710;8.736;2022-11-20T02:28:51;11.30;;;7.50;;
54959;SDS011;40860;51.710;8.736;2022-11-20T02:32:54;10.57;;;7.50;;
54959;SDS011;40860;51.710;8.736;2022-11-20T02:36:57;11.90;;;7.72;;
54959;SDS011;40860;51.710;8.736;2022-11-20T02:41:03;11.80;;;8.10;;
54959;SDS011;40860;51.710;8.736;2022-11-20T02:45:06;12.73;;;7.68;;
54959;SDS011;40860;51.710;8.736;2022-11-20T02:49:09;12.65;;;8.05;;
54959;SDS011;40860;51.710;8.736;2022-11-20T02:53:12;11.93;;;7.55;;
54959;SDS011;40860;51.710;8.736;2022-11-20T02:57:17;11.23;;;7.55;;
54959;SDS011;40860;51.710;8.736;2022-11-20T03:01:20;11.23;;;8.10;;
54959;SDS011;40860;51.710;8.736;2022-11-20T03:05:22;12.40;;;8.07;;
54959;SDS011;40860;51.710;8.736;2022-11-20T03:09:25;13.13;;;8.05;;
54959;SDS011;40860;51.710;8.736;2022-11-20T03:13:30;14.88;;;8.57;;
54959;SDS011;40860;51.710;8.736;2022-11-20T03:17:32;13.55;;;8.38;;
54959;SDS011;40860;51.710;8.736;2022-11-20T03:21:36;13.38;;;8.32;;
54959;SDS011;40860;51.710;8.736;2022-11-20T03:25:38;11.45;;;7.90;;
54959;SDS011;40860;51.710;8.736;2022-11-20T03:29:43;13.93;;;8.75;;
54959;SDS011;40860;51.710;8.736;2022-11-20T03:33:46;14.20;;;8.70;;
54959;SDS011;40860;51.710;8.736;2022-11-20T03:37:48;14.38;;;8.70;;
54959;SDS011;40860;51.710;8.736;2022-11-20T03:41:51;11.80;;;8.20;;
54959;SDS011;40860;51.710;8.736;2022-11-20T03:45:56;13.73;;;8.30;;
54959;SDS011;40860;51.710;8.736;2022-11-20T03:49:59;13.60;;;7.88;;
54959;SDS011;40860;51.710;8.736;2022-11-20T03:54:03;11.38;;;8.15;;
54959;SDS011;40860;51.710;8.736;2022-11-20T03:58:07;11.63;;;7.50;;
54959;SDS011;40860;51.710;8.736;2022-11-20T04:02:12;13.77;;;8.43;;
54959;SDS011;40860;51.710;8.736;2022-11-20T04:06:16;12.20;;;7.47;;
54959;SDS011;40860;51.710;8.736;2022-11-20T04:10:20;12.02;;;7.80;;
54959;SDS011;40860;51.710;8.736;2022-11-20T04:14:23;14.45;;;7.78;;
54959;SDS011;40860;51.710;8.736;2022-11-20T04:18:27;11.15;;;7.28;;
54959;SDS011;40860;51.710;8.736;2022-11-20T04:22:30;10.07;;;6.90;;
54959;SDS011;40860;51.710;8.736;2022-11-20T04:26:33;10.75;;;7.10;;
54959;SDS011;40860;51.710;8.736;2022-11-20T04:30:36;11.10;;;7.28;;
54959;SDS011;40860;51.710;8.736;2022-11-20T04:34:40;9.88;;;7.03;;
54959;SDS011;40860;51.710;8.736;2022-11-20T04:38:43;12.32;;;7.15;;
54959;SDS011;40860;51.710;8.736;2022-11-20T04:42:46;11.40;;;6.97;;
54959;SDS011;40860;51.710;8.736;2022-11-20T04:46:49;10.23;;;7.13;;
54959;SDS011;40860;51.710;8.736;2022-11-20T04:50:54;11.95;;;7.03;;
54959;SDS011;40860;51.710;8.736;2022-11-20T04:54:57;12.27;;;6.85;;
54959;SDS011;40860;51.710;8.736;2022-11-20T04:59:00;10.02;;;6.70;;
54959;SDS011;40860;51.710;8.736;2022-11-20T05:03:04;10.35;;;6.97;;
54959;SDS011;40860;51.710;8.736;2022-11-20T05:07:08;11.05;;;6.82;;
54959;SDS011;40860;51.710;8.736;2022-11-20T05:11:11;11.48;;;7.57;;
54959;SDS011;40860;51.710;8.736;2022-11-20T05:15:15;12.68;;;7.60;;
54959;SDS011;40860;51.710;8.736;2022-11-20T05:19:19;13.93;;;7.50;;
54959;SDS011;40860;51.710;8.736;2022-11-20T05:23:23;13.23;;;7.82;;
54959;SDS011;40860;51.710;8.736;2022-11-20T05:27:27;10.10;;;7.10;;
54959;SDS011;40860;51.710;8.736;2022-11-20T05:31:30;12.50;;;7.55;;
54959;SDS011;40860;51.710;8.736;2022-11-20T05:35:33;12.15;;;7.55;;
54959;SDS011;40860;51.710;8.736;2022-11-20T05:39:37;13.40;;;7.85;;
54959;SDS011;40860;51.710;8.736;2022-11-20T05:43:41;11.93;;;7.50;;
54959;SDS011;40860;51.710;8.736;2022-11-20T05:47:45;11.98;;;7.75;;
54959;SDS011;40860;51.710;8.736;2022-11-20T05:51:47;10.57;;;7.57;;
54959;SDS011;40860;51.710;8.736;2022-11-20T05:55:57;11.63;;;8.25;;
54959;SDS011;40860;51.710;8.736;2022-11-20T06:00:00;10.18;;;6.85;;
54959;SDS011;40860;51.710;8.736;2022-11-20T06:04:04;10.18;;;6.78;;
54959;SDS011;40860;51.710;8.736;2022-11-20T06:08:07;9.60;;;6.85;;
54959;SDS011;40860;51.710;8.736;2022-11-20T06:12:11;10.10;;;6.80;;
54959;SDS011;40860;51.710;8.736;2022-11-20T06:16:14;11.32;;;7.03;;
54959;SDS011;40860;51.710;8.736;2022-11-20T06:20:19;9.88;;;6.93;;
54959;SDS011;40860;51.710;8.736;2022-11-20T06:24:22;10.43;;;7.03;;
54959;SDS011;40860;51.710;8.736;2022-11-20T06:28:27;10.95;;;6.47;;
54959;SDS011;40860;51.710;8.736;2022-11-20T06:32:30;13.95;;;7.50;;
54959;SDS011;40860;51.710;8.736;2022-11-20T06:36:34;10.63;;;6.78;;
54959;SDS011;40860;51.710;8.736;2022-11-20T06:40:39;9.88;;;6.63;;
54959;SDS011;40860;51.710;8.736;2022-11-20T06:44:44;10.43;;;6.70;;
54959;SDS011;40860;51.710;8.736;2022-11-20T06:48:47;10.77;;;6.60;;
54959;SDS011;40860;51.710;8.736;2022-11-20T06:52:50;9.80;;;6.82;;
54959;SDS011;40860;51.710;8.736;2022-11-20T06:56:53;9.88;;;6.75;;
54959;SDS011;40860;51.710;8.736;2022-11-20T07:00:58;10.40;;;7.10;;
54959;SDS011;40860;51.710;8.736;2022-11-20T07:05:02;9.90;;;6.75;;
54959;SDS011;40860;51.710;8.736;2022-11-20T07:09:05;10.13;;;6.68;;
54959;SDS011;40860;51.710;8.736;2022-11-20T07:13:22;10.93;;;7.00;;
54959;SDS011;40860;51.710;8.736;2022-11-20T07:17:26;10.85;;;7.30;;
54959;SDS011;40860;51.710;8.736;2022-11-20T07:21:29;11.90;;;7.97;;
54959;SDS011;40860;51.710;8.736;2022-11-20T07:25:32;11.38;;;7.88;;
54959;SDS011;40860;51.710;8.736;2022-11-20T07:29:35;13.05;;;7.68;;
54959;SDS011;40860;51.710;8.736;2022-11-20T07:33:39;13.45;;;7.80;;
54959;SDS011;40860;51.710;8.736;2022-11-20T07:37:42;11.65;;;7.60;;
54959;SDS011;40860;51.710;8.736;2022-11-20T07:41:46;11.45;;;7.15;;
54959;SDS011;40860;51.710;8.736;2022-11-20T07:45:49;10.10;;;6.40;;
54959;SDS011;40860;51.710;8.736;2022-11-20T07:49:53;11.00;;;7.30;;
54959;SDS011;40860;51.710;8.736;2022-11-20T07:53:56;11.55;;;7.25;;
54959;SDS011;40860;51.710;8.736;2022-11-20T07:57:59;9.13;;;6.85;;
54959;SDS011;40860;51.710;8.736;2022-11-20T08:02:02;9.38;;;6.50;;
54959;SDS011;40860;51.710;8.736;2022-11-20T08:06:07;9.20;;;5.78;;
54959;SDS011;40860;51.710;8.736;2022-11-20T08:10:11;8.82;;;5.93;;
54959;SDS011;40860;51.710;8.736;2022-11-20T08:14:15;9.45;;;6.15;;
54959;SDS011;40860;51.710;8.736;2022-11-20T08:18:18;9.30;;;6.40;;
54959;SDS011;40860;51.710;8.736;2022-11-20T08:22:33;11.23;;;6.68;;
54959;SDS011;40860;51.710;8.736;2022-11-20T08:26:37;8.05;;;5.72;;
54959;SDS011;40860;51.710;8.736;2022-11-20T08:30:40;9.23;;;5.88;;
54959;SDS011;40860;51.710;8.736;2022-11-20T08:34:43;9.30;;;5.68;;
54959;SDS011;40860;51.710;8.736;2022-11-20T08:38:49;8.70;;;5.60;;
54959;SDS011;40860;51.710;8.736;2022-11-20T08:42:52;10.13;;;5.60;;
54959;SDS011;40860;51.710;8.736;2022-11-20T08:46:55;10.23;;;6.07;;
54959;SDS011;40860;51.710;8.736;2022-11-20T08:50:59;12.40;;;7.60;;
54959;SDS011;40860;51.710;8.736;2022-11-20T08:55:03;13.27;;;7.65;;
54959;SDS011;40860;51.710;8.736;2022-11-20T08:59:08;14.20;;;8.00;;
54959;SDS011;40860;51.710;8.736;2022-11-20T09:03:27;12.13;;;7.95;;
54959;SDS011;40860;51.710;8.736;2022-11-20T09:07:33;14.68;;;8.23;;
54959;SDS011;40860;51.710;8.736;2022-11-20T09:11:37;15.02;;;8.25;;
54959;SDS011;40860;51.710;8.736;2022-11-20T09:15:40;14.00;;;8.25;;
54959;SDS011;40860;51.710;8.736;2022-11-20T09:19:43;16.10;;;8.80;;
54959;SDS011;40860;51.710;8.736;2022-11-20T09:23:47;13.48;;;7.45;;
54959;SDS011;40860;51.710;8.736;2022-11-20T09:27:55;12.98;;;8.18;;
54959;SDS011;40860;51.710;8.736;2022-11-20T09:31:58;12.80;;;8.20;;
54959;SDS011;40860;51.710;8.736;2022-11-20T09:36:01;12.40;;;8.15;;
54959;SDS011;40860;51.710;8.736;2022-11-20T09:40:05;13.90;;;8.57;;
54959;SDS011;40860;51.710;8.736;2022-11-20T09:44:13;15.15;;;8.50;;
54959;SDS011;40860;51.710;8.736;2022-11-20T09:48:30;16.05;;;10.18;;
54959;SDS011;40860;51.710;8.736;2022-11-20T09:52:43;10.98;;;7.35;;
54959;SDS011;40860;51.710;8.736;2022-11-20T09:56:53;11.20;;;7.20;;
54959;SDS011;40860;51.710;8.736;2022-11-20T10:01:03;12.15;;;7.70;;
54959;SDS011;40860;51.710;8.736;2022-11-20T10:05:14;12.85;;;8.13;;
54959;SDS011;40860;51.710;8.736;2022-11-20T10:09:22;13.93;;;8.30;;
54959;SDS011;40860;51.710;8.736;2022-11-20T10:13:31;11.55;;;7.90;;
54959;SDS011;40860;51.710;8.736;2022-11-20T10:22:21;12.02;;;8.55;;
54959;SDS011;40860;51.710;8.736;2022-11-20T10:26:37;12.98;;;8.48;;
54959;SDS011;40860;51.710;8.736;2022-11-20T10:30:48;12.73;;;8.68;;
54959;SDS011;40860;51.710;8.736;2022-11-20T10:34:59;13.73;;;9.05;;
54959;SDS011;40860;51.710;8.736;2022-11-20T10:39:11;14.07;;;9.00;;
54959;SDS011;40860;51.710;8.736;2022-11-20T10:43:23;13.35;;;8.90;;
54959;SDS011;40860;51.710;8.736;2022-11-20T10:47:34;14.18;;;9.43;;
54959;SDS011;40860;51.710;8.736;2022-11-20T10:51:40;15.20;;;9.60;;
54959;SDS011;40860;51.710;8.736;2022-11-20T10:55:53;15.25;;;9.43;;
54959;SDS011;40860;51.710;8.736;2022-11-20T11:00:03;14.57;;;9.60;;
54959;SDS011;40860;51.710;8.736;2022-11-20T11:04:13;17.65;;;10.90;;
54959;SDS011;40860;51.710;8.736;2022-11-20T11:08:35;16.52;;;10.25;;
54959;SDS011;40860;51.710;8.736;2022-11-20T11:12:42;14.27;;;9.88;;
54959;SDS011;40860;51.710;8.736;2022-11-20T11:16:51;15.00;;;10.07;;
54959;SDS011;40860;51.710;8.736;2022-11-20T11:20:55;17.02;;;9.82;;
54959;SDS011;40860;51.710;8.736;2022-11-20T11:25:00;13.50;;;9.23;;
54959;SDS011;40860;51.710;8.736;2022-11-20T11:29:04;15.88;;;9.68;;
54959;SDS011;40860;51.710;8.736;2022-11-20T11:33:09;13.60;;;9.65;;
54959;SDS011;40860;51.710;8.736;2022-11-20T11:37:15;13.32;;;9.20;;
54959;SDS011;40860;51.710;8.736;2022-11-20T11:41:22;12.57;;;9.27;;
54959;SDS011;40860;51.710;8.736;2022-11-20T11:45:27;11.52;;;9.07;;
54959;SDS011;40860;51.710;8.736;2022-11-20T11:49:30;12.52;;;9.32;;
54959;SDS011;40860;51.710;8.736;2022-11-20T11:53:33;12.85;;;9.73;;
54959;SDS011;40860;51.710;8.736;2022-11-20T11:57:44;12.57;;;9.40;;
54959;SDS011;40860;51.710;8.736;2022-11-20T12:01:53;13.57;;;10.00;;
54959;SDS011;40860;51.710;8.736;2022-11-20T12:06:01;15.93;;;10.27;;
54959;SDS011;40860;51.710;8.736;2022-11-20T12:10:12;12.00;;;8.80;;
54959;SDS011;40860;51.710;8.736;2022-11-20T12:14:27;15.77;;;10.57;;
54959;SDS011;40860;51.710;8.736;2022-11-20T12:18:35;15.75;;;10.27;;
54959;SDS011;40860;51.710;8.736;2022-11-20T12:22:40;15.82;;;11.27;;
54959;SDS011;40860;51.710;8.736;2022-11-20T12:26:55;14.93;;;10.57;;
54959;SDS011;40860;51.710;8.736;2022-11-20T12:31:22;19.33;;;12.77;;
54959;SDS011;40860;51.710;8.736;2022-11-20T12:35:48;17.10;;;11.18;;
54959;SDS011;40860;51.710;8.736;2022-11-20T12:40:09;19.60;;;12.68;;
54959;SDS011;40860;51.710;8.736;2022-11-20T12:44:29;16.77;;;11.35;;
54959;SDS011;40860;51.710;8.736;2022-11-20T12:49:15;15.00;;;10.55;;
54959;SDS011;40860;51.710;8.736;2022-11-20T12:53:31;14.30;;;10.10;;
54959;SDS011;40860;51.710;8.736;2022-11-20T12:57:45;13.90;;;10.10;;
54959;SDS011;40860;51.710;8.736;2022-11-20T13:01:52;12.82;;;8.45;;
54959;SDS011;40860;51.710;8.736;2022-11-20T13:06:04;10.18;;;7.35;;
54959;SDS011;40860;51.710;8.736;2022-11-20T13:10:14;8.27;;;6.80;;
54959;SDS011;40860;51.710;8.736;2022-11-20T13:14:28;8.35;;;6.35;;
54959;SDS011;40860;51.710;8.736;2022-11-20T13:18:38;9.43;;;7.30;;
54959;SDS011;40860;51.710;8.736;2022-11-20T13:22:45;8.10;;;6.38;;
54959;SDS011;40860;51.710;8.736;2022-11-20T13:26:59;9.27;;;6.80;;
54959;SDS011;40860;51.710;8.736;2022-11-20T13:31:03;10.77;;;8.18;;
54959;SDS011;40860;51.710;8.736;2022-11-20T13:35:08;9.75;;;7.10;;
54959;SDS011;40860;51.710;8.736;2022-11-20T13:39:23;8.88;;;7.13;;
54959;SDS011;40860;51.710;8.736;2022-11-20T13:43:37;9.85;;;7.35;;
54959;SDS011;40860;51.710;8.736;2022-11-20T13:47:47;8.43;;;7.40;;
54959;SDS011;40860;51.710;8.736;2022-11-20T13:51:51;10.60;;;7.72;;
54959;SDS011;40860;51.710;8.736;2022-11-20T13:56:07;10.18;;;7.75;;
54959;SDS011;40860;51.710;8.736;2022-11-20T14:00:19;9.52;;;7.45;;
54959;SDS011;40860;51.710;8.736;2022-11-20T14:04:25;10.88;;;8.23;;
54959;SDS011;40860;51.710;8.736;2022-11-20T14:08:32;8.48;;;7.18;;
54959;SDS011;40860;51.710;8.736;2022-11-20T14:12:41;8.15;;;6.72;;
54959;SDS011;40860;51.710;8.736;2022-11-20T14:16:44;9.32;;;7.03;;
54959;SDS011;40860;51.710;8.736;2022-11-20T14:20:48;10.82;;;8.27;;
54959;SDS011;40860;51.710;8.736;2022-11-20T14:25:00;10.10;;;7.93;;
54959;SDS011;40860;51.710;8.736;2022-11-20T14:29:11;9.18;;;7.18;;
54959;SDS011;40860;51.710;8.736;2022-11-20T14:33:15;13.10;;;8.55;;
54959;SDS011;40860;51.710;8.736;2022-11-20T14:37:21;9.88;;;7.82;;
54959;SDS011;40860;51.710;8.736;2022-11-20T14:41:26;12.30;;;8.63;;
54959;SDS011;40860;51.710;8.736;2022-11-20T14:45:32;14.02;;;9.73;;
54959;SDS011;40860;51.710;8.736;2022-11-20T14:49:34;17.95;;;12.23;;
54959;SDS011;40860;51.710;8.736;2022-11-20T14:53:38;13.68;;;10.27;;
54959;SDS011;40860;51.710;8.736;2022-11-20T14:57:41;10.38;;;7.88;;
54959;SDS011;40860;51.710;8.736;2022-11-20T15:01:54;12.10;;;8.35;;
54959;SDS011;40860;51.710;8.736;2022-11-20T15:05:59;10.90;;;7.65;;
54959;SDS011;40860;51.710;8.736;2022-11-20T15:10:03;12.02;;;8.98;;
54959;SDS011;40860;51.710;8.736;2022-11-20T15:14:08;13.25;;;7.90;;
54959;SDS011;40860;51.710;8.736;2022-11-20T15:18:14;11.02;;;7.63;;
54959;SDS011;40860;51.710;8.736;2022-11-20T15:22:18;10.02;;;7.70;;
54959;SDS011;40860;51.710;8.736;2022-11-20T15:26:22;20.15;;;8.52;;
54959;SDS011;40860;51.710;8.736;2022-11-20T15:30:27;11.38;;;8.10;;
54959;SDS011;40860;51.710;8.736;2022-11-20T15:34:31;13.10;;;9.30;;
54959;SDS011;40860;51.710;8.736;2022-11-20T15:38:34;12.65;;;9.13;;
54959;SDS011;40860;51.710;8.736;2022-11-20T15:42:37;12.73;;;8.43;;
54959;SDS011;40860;51.710;8.736;2022-11-20T15:47:00;10.80;;;7.55;;
54959;SDS011;40860;51.710;8.736;2022-11-20T15:51:06;11.23;;;7.82;;
54959;SDS011;40860;51.710;8.736;2022-11-20T15:55:15;11.65;;;8.55;;
54959;SDS011;40860;51.710;8.736;2022-11-20T15:59:18;13.32;;;9.98;;
54959;SDS011;40860;51.710;8.736;2022-11-20T16:03:21;15.60;;;11.52;;
54959;SDS011;40860;51.710;8.736;2022-11-20T16:07:26;12.27;;;10.15;;
54959;SDS011;40860;51.710;8.736;2022-11-20T16:11:29;11.48;;;8.25;;
54959;SDS011;40860;51.710;8.736;2022-11-20T16:15:32;11.35;;;7.95;;
54959;SDS011;40860;51.710;8.736;2022-11-20T16:19:46;10.45;;;7.93;;
54959;SDS011;40860;51.710;8.736;2022-11-20T16:23:50;10.73;;;7.85;;
54959;SDS011;40860;51.710;8.736;2022-11-20T16:27:53;9.10;;;6.50;;
54959;SDS011;40860;51.710;8.736;2022-11-20T16:31:56;9.43;;;7.18;;
54959;SDS011;40860;51.710;8.736;2022-11-20T16:36:05;9.43;;;6.50;;
54959;SDS011;40860;51.710;8.736;2022-11-20T16:40:11;7.97;;;6.00;;
54959;SDS011;40860;51.710;8.736;2022-11-20T16:44:14;8.48;;;6.22;;
54959;SDS011;40860;51.710;8.736;2022-11-20T16:48:17;9.02;;;6.70;;
54959;SDS011;40860;51.710;8.736;2022-11-20T16:52:20;11.32;;;7.07;;
54959;SDS011;40860;51.710;8.736;2022-11-20T16:56:24;9.88;;;7.03;;
54959;SDS011;40860;51.710;8.736;2022-11-20T17:00:28;10.60;;;7.00;;
54959;SDS011;40860;51.710;8.736;2022-11-20T17:04:31;11.95;;;8.18;;
54959;SDS011;40860;51.710;8.736;2022-11-20T17:08:34;11.55;;;8.50;;
54959;SDS011;40860;51.710;8.736;2022-11-20T17:12:38;12.07;;;8.05;;
54959;SDS011;40860;51.710;8.736;2022-11-20T17:16:44;11.27;;;8.30;;
54959;SDS011;40860;51.710;8.736;2022-11-20T17:20:50;12.82;;;8.98;;
54959;SDS011;40860;51.710;8.736;2022-11-20T17:24:53;12.45;;;8.15;;
54959;SDS011;40860;51.710;8.736;2022-11-20T17:28:58;12.60;;;8.30;;
54959;SDS011;40860;51.710;8.736;2022-11-20T17:33:02;12.32;;;8.32;;
54959;SDS011;40860;51.710;8.736;2022-11-20T17:37:05;13.80;;;9.02;;
54959;SDS011;40860;51.710;8.736;2022-11-20T17:41:08;14.93;;;10.13;;
54959;SDS011;40860;51.710;8.736;2022-11-20T17:45:14;14.45;;;10.02;;
54959;SDS011;40860;51.710;8.736;2022-11-20T17:49:17;15.63;;;9.95;;
54959;SDS011;40860;51.710;8.736;2022-11-20T17:53:24;15.95;;;10.73;;
54959;SDS011;40860;51.710;8.736;2022-11-20T17:57:27;18.58;;;11.55;;
54959;SDS011;40860;51.710;8.736;2022-11-20T18:01:45;18.67;;;12.68;;
54959;SDS011;40860;51.710;8.736;2022-11-20T18:05:48;18.67;;;12.65;;
54959;SDS011;40860;51.710;8.736;2022-11-20T18:09:51;19.58;;;12.88;;
54959;SDS011;40860;51.710;8.736;2022-11-20T18:13:55;23.10;;;13.80;;
54959;SDS011;40860;51.710;8.736;2022-11-20T18:18:18;22.25;;;14.00;;
54959;SDS011;40860;51.710;8.736;2022-11-20T18:22:21;20.38;;;13.07;;
54959;SDS011;40860;51.710;8.736;2022-11-20T18:26:24;21.88;;;13.45;;
54959;SDS011;40860;51.710;8.736;2022-11-20T18:30:28;20.27;;;13.10;;
54959;SDS011;40860;51.710;8.736;2022-11-20T18:34:32;19.40;;;13.20;;
54959;SDS011;40860;51.710;8.736;2022-11-20T18:38:35;22.35;;;14.18;;
54959;SDS011;40860;51.710;8.736;2022-11-20T18:42:40;19.83;;;12.90;;
54959;SDS011;40860;51.710;8.736;2022-11-20T18:47:01;22.92;;;14.52;;
54959;SDS011;40860;51.710;8.736;2022-11-20T18:51:15;19.00;;;12.77;;
54959;SDS011;40860;51.710;8.736;2022-11-20T18:55:18;21.48;;;14.82;;
54959;SDS011;40860;51.710;8.736;2022-11-20T18:59:24;21.63;;;13.98;;
54959;SDS011;40860;51.710;8.736;2022-11-20T19:03:28;20.48;;;13.90;;
54959;SDS011;40860;51.710;8.736;2022-11-20T19:07:32;19.02;;;12.32;;
54959;SDS011;40860;51.710;8.736;2022-11-20T19:11:35;21.60;;;13.52;;
54959;SDS011;40860;51.710;8.736;2022-11-20T19:15:38;18.52;;;12.85;;
54959;SDS011;40860;51.710;8.736;2022-11-20T19:19:41;20.70;;;13.52;;
54959;SDS011;40860;51.710;8.736;2022-11-20T19:23:47;20.35;;;13.30;;
54959;SDS011;40860;51.710;8.736;2022-11-20T19:27:51;22.08;;;13.88;;
54959;SDS011;40860;51.710;8.736;2022-11-20T19:31:54;19.05;;;12.55;;
54959;SDS011;40860;51.710;8.736;2022-11-20T19:36:01;18.52;;;12.27;;
54959;SDS011;40860;51.710;8.736;2022-11-20T19:40:11;16.58;;;11.75;;
54959;SDS011;40860;51.710;8.736;2022-11-20T19:44:14;17.55;;;12.38;;
54959;SDS011;40860;51.710;8.736;2022-11-20T19:48:18;18.48;;;12.45;;
54959;SDS011;40860;51.710;8.736;2022-11-20T19:52:21;18.70;;;12.50;;
54959;SDS011;40860;51.710;8.736;2022-11-20T19:56:25;19.48;;;12.20;;
54959;SDS011;40860;51.710;8.736;2022-11-20T20:00:29;18.35;;;12.05;;
54959;SDS011;40860;51.710;8.736;2022-11-20T20:04:33;18.52;;;12.32;;
54959;SDS011;40860;51.710;8.736;2022-11-20T20:08:36;19.02;;;12.80;;
54959;SDS011;40860;51.710;8.736;2022-11-20T20:12:40;20.23;;;13.13;;
54959;SDS011;40860;51.710;8.736;2022-11-20T20:16:43;20.65;;;13.27;;
54959;SDS011;40860;51.710;8.736;2022-11-20T20:20:46;20.95;;;13.48;;
54959;SDS011;40860;51.710;8.736;2022-11-20T20:24:49;19.17;;;13.10;;
54959;SDS011;40860;51.710;8.736;2022-11-20T20:28:54;20.52;;;13.93;;
54959;SDS011;40860;51.710;8.736;2022-11-20T20:32:57;21.63;;;13.30;;
54959;SDS011;40860;51.710;8.736;2022-11-20T20:36:59;22.92;;;13.27;;
54959;SDS011;40860;51.710;8.736;2022-11-20T20:41:04;21.73;;;13.80;;
54959;SDS011;40860;51.710;8.736;2022-11-20T20:45:08;22.60;;;14.48;;
54959;SDS011;40860;51.710;8.736;2022-11-20T20:49:12;21.65;;;13.75;;
54959;SDS011;40860;51.710;8.736;2022-11-20T20:53:15;22.45;;;14.93;;
54959;SDS011;40860;51.710;8.736;2022-11-20T20:57:18;21.13;;;13.85;;
54959;SDS011;40860;51.710;8.736;2022-11-20T21:01:22;19.98;;;12.75;;
54959;SDS011;40860;51.710;8.736;2022-11-20T21:05:28;20.08;;;12.75;;
54959;SDS011;40860;51.710;8.736;2022-11-20T21:09:31;17.52;;;12.38;;
54959;SDS011;40860;51.710;8.736;2022-11-20T21:13:35;17.13;;;12.00;;
54959;SDS011;40860;51.710;8.736;2022-11-20T21:17:40;17.63;;;11.02;;
54959;SDS011;40860;51.710;8.736;2022-11-20T21:21:44;16.13;;;10.95;;
54959;SDS011;40860;51.710;8.736;2022-11-20T21:26:04;14.60;;;9.88;;
54959;SDS011;40860;51.710;8.736;2022-11-20T21:30:09;14.57;;;10.10;;
54959;SDS011;40860;51.710;8.736;2022-11-20T21:34:14;13.80;;;9.48;;
54959;SDS011;40860;51.710;8.736;2022-11-20T21:38:17;13.52;;;10.00;;
54959;SDS011;40860;51.710;8.736;2022-11-20T21:42:20;14.00;;;10.00;;
54959;SDS011;40860;51.710;8.736;2022-11-20T21:46:23;15.05;;;10.38;;
54959;SDS011;40860;51.710;8.736;2022-11-20T21:50:27;14.52;;;10.32;;
54959;SDS011;40860;51.710;8.736;2022-11-20T21:54:30;12.13;;;9.65;;
54959;SDS011;40860;51.710;8.736;2022-11-20T21:58:36;12.80;;;9.90;;
54959;SDS011;40860;51.710;8.736;2022-11-20T22:02:40;13.32;;;9.63;;
54959;SDS011;40860;51.710;8.736;2022-11-20T22:06:44;15.23;;;10.20;;
54959;SDS011;40860;51.710;8.736;2022-11-20T22:10:52;15.48;;;10.57;;
54959;SDS011;40860;51.710;8.736;2022-11-20T22:14:56;15.18;;;10.73;;
54959;SDS011;40860;51.710;8.736;2022-11-20T22:18:58;14.10;;;10.10;;
54959;SDS011;40860;51.710;8.736;2022-11-20T22:23:05;16.02;;;10.77;;
54959;SDS011;40860;51.710;8.736;2022-11-20T22:27:08;13.57;;;9.90;;
54959;SDS011;40860;51.710;8.736;2022-11-20T22:31:11;15.23;;;10.98;;
54959;SDS011;40860;51.710;8.736;2022-11-20T22:35:14;14.45;;;11.07;;
54959;SDS011;40860;51.710;8.736;2022-11-20T22:39:18;14.85;;;11.15;;
54959;SDS011;40860;51.710;8.736;2022-11-20T22:43:22;14.18;;;10.65;;
54959;SDS011;40860;51.710;8.736;2022-11-20T22:47:25;13.60;;;10.38;;
54959;SDS011;40860;51.710;8.736;2022-11-20T22:51:29;14.73;;;10.68;;
54959;SDS011;40860;51.710;8.736;2022-11-20T22:55:34;14.90;;;10.55;;
54959;SDS011;40860;51.710;8.736;2022-11-20T22:59:37;15.52;;;10.85;;
54959;SDS011;40860;51.710;8.736;2022-11-20T23:03:43;14.20;;;10.40;;
54959;SDS011;40860;51.710;8.736;2022-11-20T23:07:47;13.57;;;10.40;;
54959;SDS011;40860;51.710;8.736;2022-11-20T23:11:53;12.65;;;9.60;;
54959;SDS011;40860;51.710;8.736;2022-11-20T23:16:00;15.52;;;10.35;;
54959;SDS011;40860;51.710;8.736;2022-11-20T23:20:05;13.77;;;9.75;;
54959;SDS011;40860;51.710;8.736;2022-11-20T23:24:09;13.38;;;9.65;;
54959;SDS011;40860;51.710;8.736;2022-11-20T23:28:14;13.43;;;9.80;;
54959;SDS011;40860;51.710;8.736;2022-11-20T23:32:17;11.85;;;9.25;;
54959;SDS011;40860;51.710;8.736;2022-11-20T23:36:20;13.73;;;9.55;;
54959;SDS011;40860;51.710;8.736;2022-11-20T23:40:23;13.98;;;9.45;;
54959;SDS011;40860;51.710;8.736;2022-11-20T23:44:27;12.27;;;8.95;;
54959;SDS011;40860;51.710;8.736;2022-11-20T23:48:31;11.25;;;8.48;;
54959;SDS011;40860;51.710;8.736;2022-11-20T23:52:35;13.20;;;9.55;;
54959;SDS011;40860;51.710;8.736;2022-11-20T23:56:38;13.57;;;10.40;;
